sensor_id;sensor_type;location;lat;lon;timestamp;temperature;humidity
6930;DHT22;3504;52.616;13.238;2022-11-15T00:01:38;6.21;86.27
6930;DHT22;3504;52.616;13.238;2022-11-15T00:06:58;6.26;86.40
6930;DHT22;3504;52.616;13.238;2022-11-15T00:12:17;6.26;86.32
6930;DHT22;3504;52.616;13.238;2022-11-15T00:17:36;6.24;86.37
6930;DHT22;3504;52.616;13.238;2022-11-15T00:22:55;6.23;86.47
6930;DHT22;3504;52.616;13.238;2022-11-15T00:28:15;6.21;86.72
6930;DHT22;3504;52.616;13.238;2022-11-15T00:33:34;6.23;86.60
6930;DHT22;3504;52.616;13.238;2022-11-15T00:38:53;6.21;86.36
6930;DHT22;3504;52.616;13.238;2022-11-15T00:44:12;6.17;85.95
6930;DHT22;3504;52.616;13.238;2022-11-15T00:49:31;6.09;85.60
6930;DHT22;3504;52.616;13.238;2022-11-15T00:54:50;6.03;85.42
6930;DHT22;3504;52.616;13.238;2022-11-15T01:00:10;6.02;85.39
6930;DHT22;3504;52.616;13.238;2022-11-15T01:05:30;5.90;84.93
6930;DHT22;3504;52.616;13.238;2022-11-15T01:10:49;5.78;85.16
6930;DHT22;3504;52.616;13.238;2022-11-15T01:16:17;5.76;85.08
6930;DHT22;3504;52.616;13.238;2022-11-15T01:21:37;5.68;85.02
6930;DHT22;3504;52.616;13.238;2022-11-15T01:26:56;5.59;85.19
6930;DHT22;3504;52.616;13.238;2022-11-15T01:32:16;5.54;85.39
6930;DHT22;3504;52.616;13.238;2022-11-15T01:37:35;5.48;84.96
6930;DHT22;3504;52.616;13.238;2022-11-15T01:42:54;5.41;85.16
6930;DHT22;3504;52.616;13.238;2022-11-15T01:48:13;5.39;85.21
6930;DHT22;3504;52.616;13.238;2022-11-15T01:53:33;5.37;85.27
6930;DHT22;3504;52.616;13.238;2022-11-15T01:58:57;5.31;85.22
6930;DHT22;3504;52.616;13.238;2022-11-15T02:04:20;5.32;85.35
6930;DHT22;3504;52.616;13.238;2022-11-15T02:09:44;5.28;85.50
6930;DHT22;3504;52.616;13.238;2022-11-15T02:15:05;5.25;85.10
6930;DHT22;3504;52.616;13.238;2022-11-15T02:20:47;5.21;85.24
6930;DHT22;3504;52.616;13.238;2022-11-15T02:27:03;5.18;84.92
6930;DHT22;3504;52.616;13.238;2022-11-15T02:32:44;5.13;84.74
6930;DHT22;3504;52.616;13.238;2022-11-15T02:44:13;5.04;85.28
6930;DHT22;3504;52.616;13.238;2022-11-15T02:49:34;5.00;85.11
6930;DHT22;3504;52.616;13.238;2022-11-15T02:54:57;5.00;85.43
6930;DHT22;3504;52.616;13.238;2022-11-15T03:00:20;4.94;85.95
6930;DHT22;3504;52.616;13.238;2022-11-15T03:11:43;4.89;85.72
6930;DHT22;3504;52.616;13.238;2022-11-15T03:17:29;4.92;86.02
6930;DHT22;3504;52.616;13.238;2022-11-15T03:22:50;4.87;85.92
6930;DHT22;3504;52.616;13.238;2022-11-15T03:28:22;4.90;86.63
6930;DHT22;3504;52.616;13.238;2022-11-15T03:33:42;4.93;87.08
6930;DHT22;3504;52.616;13.238;2022-11-15T03:39:06;5.00;86.84
6930;DHT22;3504;52.616;13.238;2022-11-15T03:44:50;5.03;86.40
6930;DHT22;3504;52.616;13.238;2022-11-15T03:50:19;5.01;86.19
6930;DHT22;3504;52.616;13.238;2022-11-15T03:55:39;5.01;86.19
6930;DHT22;3504;52.616;13.238;2022-11-15T04:00:58;4.96;86.33
6930;DHT22;3504;52.616;13.238;2022-11-15T04:06:18;4.93;86.39
6930;DHT22;3504;52.616;13.238;2022-11-15T04:11:37;4.96;86.66
6930;DHT22;3504;52.616;13.238;2022-11-15T04:16:56;4.97;86.45
6930;DHT22;3504;52.616;13.238;2022-11-15T04:22:16;5.00;86.58
6930;DHT22;3504;52.616;13.238;2022-11-15T04:27:54;4.99;86.45
6930;DHT22;3504;52.616;13.238;2022-11-15T04:33:13;5.01;86.35
6930;DHT22;3504;52.616;13.238;2022-11-15T04:38:33;5.00;85.86
6930;DHT22;3504;52.616;13.238;2022-11-15T04:43:52;4.92;85.86
6930;DHT22;3504;52.616;13.238;2022-11-15T04:49:12;4.84;86.01
6930;DHT22;3504;52.616;13.238;2022-11-15T04:54:31;4.75;86.25
6930;DHT22;3504;52.616;13.238;2022-11-15T04:59:50;4.69;86.28
6930;DHT22;3504;52.616;13.238;2022-11-15T05:05:09;4.63;86.12
6930;DHT22;3504;52.616;13.238;2022-11-15T05:10:29;4.61;85.83
6930;DHT22;3504;52.616;13.238;2022-11-15T05:15:50;4.58;85.53
6930;DHT22;3504;52.616;13.238;2022-11-15T05:21:13;4.56;85.52
6930;DHT22;3504;52.616;13.238;2022-11-15T05:26:33;4.53;85.18
6930;DHT22;3504;52.616;13.238;2022-11-15T05:31:52;4.51;85.14
6930;DHT22;3504;52.616;13.238;2022-11-15T05:37:13;4.45;84.95
6930;DHT22;3504;52.616;13.238;2022-11-15T05:42:32;4.42;84.86
6930;DHT22;3504;52.616;13.238;2022-11-15T05:47:52;4.41;84.84
6930;DHT22;3504;52.616;13.238;2022-11-15T05:53:14;4.34;84.70
6930;DHT22;3504;52.616;13.238;2022-11-15T05:58:33;4.31;85.13
6930;DHT22;3504;52.616;13.238;2022-11-15T06:03:52;4.26;85.49
6930;DHT22;3504;52.616;13.238;2022-11-15T06:09:11;4.22;85.41
6930;DHT22;3504;52.616;13.238;2022-11-15T06:14:30;4.22;85.08
6930;DHT22;3504;52.616;13.238;2022-11-15T06:19:50;4.18;85.28
6930;DHT22;3504;52.616;13.238;2022-11-15T06:25:09;4.18;85.02
6930;DHT22;3504;52.616;13.238;2022-11-15T06:30:28;4.21;85.00
6930;DHT22;3504;52.616;13.238;2022-11-15T06:35:47;4.21;85.19
6930;DHT22;3504;52.616;13.238;2022-11-15T06:41:09;4.14;85.57
6930;DHT22;3504;52.616;13.238;2022-11-15T06:46:28;4.15;85.50
6930;DHT22;3504;52.616;13.238;2022-11-15T06:51:48;4.17;85.30
6930;DHT22;3504;52.616;13.238;2022-11-15T06:57:07;4.17;85.33
6930;DHT22;3504;52.616;13.238;2022-11-15T07:02:26;4.22;85.42
6930;DHT22;3504;52.616;13.238;2022-11-15T07:07:52;4.21;85.94
6930;DHT22;3504;52.616;13.238;2022-11-15T07:13:11;4.22;86.04
6930;DHT22;3504;52.616;13.238;2022-11-15T07:18:31;4.26;86.18
6930;DHT22;3504;52.616;13.238;2022-11-15T07:23:51;4.38;86.04
6930;DHT22;3504;52.616;13.238;2022-11-15T07:29:10;4.44;86.16
6930;DHT22;3504;52.616;13.238;2022-11-15T07:34:31;4.51;86.51
6930;DHT22;3504;52.616;13.238;2022-11-15T07:39:50;4.61;87.03
6930;DHT22;3504;52.616;13.238;2022-11-15T07:45:09;4.80;87.58
6930;DHT22;3504;52.616;13.238;2022-11-15T07:50:29;5.04;88.56
6930;DHT22;3504;52.616;13.238;2022-11-15T07:55:50;5.25;88.60
6930;DHT22;3504;52.616;13.238;2022-11-15T08:01:11;5.42;88.81
6930;DHT22;3504;52.616;13.238;2022-11-15T08:06:31;5.68;89.48
6930;DHT22;3504;52.616;13.238;2022-11-15T08:11:49;5.96;89.77
6930;DHT22;3504;52.616;13.238;2022-11-15T08:17:09;6.24;90.02
6930;DHT22;3504;52.616;13.238;2022-11-15T08:22:28;6.57;90.23
6930;DHT22;3504;52.616;13.238;2022-11-15T08:27:47;6.85;89.77
6930;DHT22;3504;52.616;13.238;2022-11-15T08:33:13;7.12;89.01
6930;DHT22;3504;52.616;13.238;2022-11-15T08:38:32;7.47;88.69
6930;DHT22;3504;52.616;13.238;2022-11-15T08:43:51;7.74;88.35
6930;DHT22;3504;52.616;13.238;2022-11-15T08:49:10;8.02;86.71
6930;DHT22;3504;52.616;13.238;2022-11-15T08:54:29;8.29;86.21
6930;DHT22;3504;52.616;13.238;2022-11-15T08:59:49;8.59;85.19
6930;DHT22;3504;52.616;13.238;2022-11-15T09:05:08;8.79;84.18
6930;DHT22;3504;52.616;13.238;2022-11-15T09:10:27;9.05;83.16
6930;DHT22;3504;52.616;13.238;2022-11-15T09:15:46;9.28;82.66
6930;DHT22;3504;52.616;13.238;2022-11-15T09:21:05;9.56;82.09
6930;DHT22;3504;52.616;13.238;2022-11-15T09:26:25;9.86;81.30
6930;DHT22;3504;52.616;13.238;2022-11-15T09:31:44;10.09;80.42
6930;DHT22;3504;52.616;13.238;2022-11-15T09:37:03;10.28;79.49
6930;DHT22;3504;52.616;13.238;2022-11-15T09:48:38;10.67;77.57
6930;DHT22;3504;52.616;13.238;2022-11-15T10:05:18;11.26;76.94
6930;DHT22;3504;52.616;13.238;2022-11-15T10:10:42;11.40;75.36
6930;DHT22;3504;52.616;13.238;2022-11-15T10:15:44;11.64;75.70
6930;DHT22;3504;52.616;13.238;2022-11-15T10:20:59;11.87;74.97
6930;DHT22;3504;52.616;13.238;2022-11-15T10:26:00;11.99;74.28
6930;DHT22;3504;52.616;13.238;2022-11-15T10:31:01;12.11;74.10
6930;DHT22;3504;52.616;13.238;2022-11-15T10:41:08;12.40;73.99
6930;DHT22;3504;52.616;13.238;2022-11-15T10:46:23;12.48;72.26
6930;DHT22;3504;52.616;13.238;2022-11-15T10:51:27;12.55;72.53
6930;DHT22;3504;52.616;13.238;2022-11-15T10:56:29;12.57;71.74
6930;DHT22;3504;52.616;13.238;2022-11-15T11:01:29;12.53;71.79
6930;DHT22;3504;52.616;13.238;2022-11-15T11:06:31;12.56;71.72
6930;DHT22;3504;52.616;13.238;2022-11-15T11:11:49;12.63;71.69
6930;DHT22;3504;52.616;13.238;2022-11-15T11:22:26;12.85;71.93
6930;DHT22;3504;52.616;13.238;2022-11-15T11:38:44;12.90;71.08
6930;DHT22;3504;52.616;13.238;2022-11-15T11:44:16;13.03;71.31
6930;DHT22;3504;52.616;13.238;2022-11-15T11:49:31;12.97;70.94
6930;DHT22;3504;52.616;13.238;2022-11-15T11:55:16;12.99;70.90
6930;DHT22;3504;52.616;13.238;2022-11-15T12:00:23;13.06;70.95
6930;DHT22;3504;52.616;13.238;2022-11-15T12:05:34;13.00;70.47
6930;DHT22;3504;52.616;13.238;2022-11-15T12:10:39;13.15;71.28
6930;DHT22;3504;52.616;13.238;2022-11-15T12:16:07;13.17;71.25
6930;DHT22;3504;52.616;13.238;2022-11-15T12:26:48;13.17;70.57
6930;DHT22;3504;52.616;13.238;2022-11-15T12:31:52;13.21;70.85
6930;DHT22;3504;52.616;13.238;2022-11-15T12:36:56;13.10;70.89
6930;DHT22;3504;52.616;13.238;2022-11-15T13:17:42;13.20;70.80
6930;DHT22;3504;52.616;13.238;2022-11-15T13:22:52;13.18;71.28
6930;DHT22;3504;52.616;13.238;2022-11-15T13:38:36;13.15;71.10
6930;DHT22;3504;52.616;13.238;2022-11-15T13:43:37;13.08;71.38
6930;DHT22;3504;52.616;13.238;2022-11-15T13:48:39;13.10;71.60
6930;DHT22;3504;52.616;13.238;2022-11-15T13:53:43;13.08;71.36
6930;DHT22;3504;52.616;13.238;2022-11-15T13:58:46;13.07;71.78
6930;DHT22;3504;52.616;13.238;2022-11-15T14:03:55;13.00;72.11
6930;DHT22;3504;52.616;13.238;2022-11-15T14:14:33;12.80;72.60
6930;DHT22;3504;52.616;13.238;2022-11-15T14:19:44;12.76;72.92
6930;DHT22;3504;52.616;13.238;2022-11-15T14:30:14;12.53;73.78
6930;DHT22;3504;52.616;13.238;2022-11-15T14:35:21;12.40;74.17
6930;DHT22;3504;52.616;13.238;2022-11-15T14:40:22;12.30;74.47
6930;DHT22;3504;52.616;13.238;2022-11-15T14:45:22;12.19;74.92
6930;DHT22;3504;52.616;13.238;2022-11-15T14:50:23;12.05;75.28
6930;DHT22;3504;52.616;13.238;2022-11-15T14:55:30;11.94;75.69
6930;DHT22;3504;52.616;13.238;2022-11-15T15:00:32;11.84;76.00
6930;DHT22;3504;52.616;13.238;2022-11-15T15:05:37;11.73;76.16
6930;DHT22;3504;52.616;13.238;2022-11-15T15:10:42;11.58;76.77
6930;DHT22;3504;52.616;13.238;2022-11-15T15:15:42;11.43;76.97
6930;DHT22;3504;52.616;13.238;2022-11-15T15:20:45;11.27;77.54
6930;DHT22;3504;52.616;13.238;2022-11-15T15:25:47;11.15;77.65
6930;DHT22;3504;52.616;13.238;2022-11-15T15:30:49;11.02;78.06
6930;DHT22;3504;52.616;13.238;2022-11-15T15:35:49;10.92;78.26
6930;DHT22;3504;52.616;13.238;2022-11-15T15:40:50;10.84;79.47
6930;DHT22;3504;52.616;13.238;2022-11-15T15:45:50;10.82;79.02
6930;DHT22;3504;52.616;13.238;2022-11-15T15:50:51;10.79;78.91
6930;DHT22;3504;52.616;13.238;2022-11-15T15:55:51;10.69;79.01
6930;DHT22;3504;52.616;13.238;2022-11-15T16:00:52;10.63;79.14
6930;DHT22;3504;52.616;13.238;2022-11-15T16:05:53;10.52;79.32
6930;DHT22;3504;52.616;13.238;2022-11-15T16:10:54;10.42;79.47
6930;DHT22;3504;52.616;13.238;2022-11-15T16:15:55;10.30;79.96
6930;DHT22;3504;52.616;13.238;2022-11-15T16:20:55;10.23;80.20
6930;DHT22;3504;52.616;13.238;2022-11-15T16:25:56;10.13;80.23
6930;DHT22;3504;52.616;13.238;2022-11-15T16:31:08;10.04;81.01
6930;DHT22;3504;52.616;13.238;2022-11-15T16:36:24;9.97;81.12
6930;DHT22;3504;52.616;13.238;2022-11-15T16:41:25;9.90;81.82
6930;DHT22;3504;52.616;13.238;2022-11-15T16:46:27;9.79;82.09
6930;DHT22;3504;52.616;13.238;2022-11-15T16:51:28;9.72;82.63
6930;DHT22;3504;52.616;13.238;2022-11-15T16:56:29;9.66;82.91
6930;DHT22;3504;52.616;13.238;2022-11-15T17:01:35;9.59;82.72
6930;DHT22;3504;52.616;13.238;2022-11-15T17:06:42;9.49;82.46
6930;DHT22;3504;52.616;13.238;2022-11-15T17:11:43;9.34;83.05
6930;DHT22;3504;52.616;13.238;2022-11-15T17:16:43;9.25;83.00
6930;DHT22;3504;52.616;13.238;2022-11-15T17:21:45;9.17;82.92
6930;DHT22;3504;52.616;13.238;2022-11-15T17:26:46;9.10;82.92
6930;DHT22;3504;52.616;13.238;2022-11-15T17:31:47;8.96;83.10
6930;DHT22;3504;52.616;13.238;2022-11-15T17:36:48;8.87;83.31
6930;DHT22;3504;52.616;13.238;2022-11-15T17:41:48;8.70;83.61
6930;DHT22;3504;52.616;13.238;2022-11-15T17:46:49;8.63;83.88
6930;DHT22;3504;52.616;13.238;2022-11-15T17:51:49;8.53;84.02
6930;DHT22;3504;52.616;13.238;2022-11-15T17:56:50;8.49;83.85
6930;DHT22;3504;52.616;13.238;2022-11-15T18:01:50;8.39;83.82
6930;DHT22;3504;52.616;13.238;2022-11-15T18:06:54;8.32;83.65
6930;DHT22;3504;52.616;13.238;2022-11-15T18:11:55;8.26;83.54
6930;DHT22;3504;52.616;13.238;2022-11-15T18:16:56;8.19;83.47
6930;DHT22;3504;52.616;13.238;2022-11-15T18:21:56;8.09;83.77
6930;DHT22;3504;52.616;13.238;2022-11-15T18:26:58;8.02;83.40
6930;DHT22;3504;52.616;13.238;2022-11-15T18:31:59;7.97;83.43
6930;DHT22;3504;52.616;13.238;2022-11-15T18:37:00;7.90;83.21
6930;DHT22;3504;52.616;13.238;2022-11-15T18:42:02;7.77;83.48
6930;DHT22;3504;52.616;13.238;2022-11-15T18:47:02;7.65;83.61
6930;DHT22;3504;52.616;13.238;2022-11-15T18:52:03;7.63;83.78
6930;DHT22;3504;52.616;13.238;2022-11-15T18:57:03;7.61;83.49
6930;DHT22;3504;52.616;13.238;2022-11-15T19:02:04;7.54;83.74
6930;DHT22;3504;52.616;13.238;2022-11-15T19:07:04;7.47;83.99
6930;DHT22;3504;52.616;13.238;2022-11-15T19:12:05;7.37;84.66
6930;DHT22;3504;52.616;13.238;2022-11-15T19:17:05;7.36;85.01
6930;DHT22;3504;52.616;13.238;2022-11-15T19:22:06;7.29;85.23
6930;DHT22;3504;52.616;13.238;2022-11-15T19:27:06;7.32;85.52
6930;DHT22;3504;52.616;13.238;2022-11-15T19:32:07;7.30;85.45
6930;DHT22;3504;52.616;13.238;2022-11-15T19:37:08;7.32;85.66
6930;DHT22;3504;52.616;13.238;2022-11-15T19:42:08;7.36;85.55
6930;DHT22;3504;52.616;13.238;2022-11-15T19:47:09;7.29;85.71
6930;DHT22;3504;52.616;13.238;2022-11-15T19:52:09;7.23;86.35
6930;DHT22;3504;52.616;13.238;2022-11-15T19:57:10;7.19;86.59
6930;DHT22;3504;52.616;13.238;2022-11-15T20:02:11;7.20;86.38
6930;DHT22;3504;52.616;13.238;2022-11-15T20:07:11;7.20;86.81
6930;DHT22;3504;52.616;13.238;2022-11-15T20:12:11;7.20;86.97
6930;DHT22;3504;52.616;13.238;2022-11-15T20:17:12;7.23;87.01
6930;DHT22;3504;52.616;13.238;2022-11-15T20:22:13;7.24;87.10
6930;DHT22;3504;52.616;13.238;2022-11-15T20:27:13;7.20;87.59
6930;DHT22;3504;52.616;13.238;2022-11-15T20:32:14;7.18;87.80
6930;DHT22;3504;52.616;13.238;2022-11-15T20:37:15;7.15;87.66
6930;DHT22;3504;52.616;13.238;2022-11-15T20:42:15;7.15;87.95
6930;DHT22;3504;52.616;13.238;2022-11-15T20:47:15;7.12;88.27
6930;DHT22;3504;52.616;13.238;2022-11-15T20:52:16;7.11;88.34
6930;DHT22;3504;52.616;13.238;2022-11-15T20:57:16;7.09;88.35
6930;DHT22;3504;52.616;13.238;2022-11-15T21:02:17;7.11;88.32
6930;DHT22;3504;52.616;13.238;2022-11-15T21:07:18;7.13;88.27
6930;DHT22;3504;52.616;13.238;2022-11-15T21:12:18;7.15;88.40
6930;DHT22;3504;52.616;13.238;2022-11-15T21:17:18;7.06;89.00
6930;DHT22;3504;52.616;13.238;2022-11-15T21:22:19;7.11;88.66
6930;DHT22;3504;52.616;13.238;2022-11-15T21:27:19;7.11;88.82
6930;DHT22;3504;52.616;13.238;2022-11-15T21:32:20;7.12;88.85
6930;DHT22;3504;52.616;13.238;2022-11-15T21:37:21;7.18;88.59
6930;DHT22;3504;52.616;13.238;2022-11-15T21:42:21;7.12;88.40
6930;DHT22;3504;52.616;13.238;2022-11-15T21:47:22;7.08;88.79
6930;DHT22;3504;52.616;13.238;2022-11-15T21:52:22;7.06;88.56
6930;DHT22;3504;52.616;13.238;2022-11-15T21:57:23;6.95;88.98
6930;DHT22;3504;52.616;13.238;2022-11-15T22:02:23;6.95;88.92
6930;DHT22;3504;52.616;13.238;2022-11-15T22:07:24;6.98;89.00
6930;DHT22;3504;52.616;13.238;2022-11-15T22:12:24;7.01;88.98
6930;DHT22;3504;52.616;13.238;2022-11-15T22:17:25;6.99;89.15
6930;DHT22;3504;52.616;13.238;2022-11-15T22:22:46;6.98;88.95
6930;DHT22;3504;52.616;13.238;2022-11-15T22:27:46;7.01;88.75
6930;DHT22;3504;52.616;13.238;2022-11-15T22:32:47;6.96;88.97
6930;DHT22;3504;52.616;13.238;2022-11-15T22:37:47;6.95;89.17
6930;DHT22;3504;52.616;13.238;2022-11-15T22:42:48;6.98;89.20
6930;DHT22;3504;52.616;13.238;2022-11-15T22:47:48;6.98;89.17
6930;DHT22;3504;52.616;13.238;2022-11-15T22:52:49;6.88;89.31
6930;DHT22;3504;52.616;13.238;2022-11-15T22:57:49;6.91;89.33
6930;DHT22;3504;52.616;13.238;2022-11-15T23:02:50;6.84;89.77
6930;DHT22;3504;52.616;13.238;2022-11-15T23:07:51;6.85;89.68
6930;DHT22;3504;52.616;13.238;2022-11-15T23:12:51;6.81;89.79
6930;DHT22;3504;52.616;13.238;2022-11-15T23:18:11;6.80;90.28
6930;DHT22;3504;52.616;13.238;2022-11-15T23:23:12;6.78;90.02
6930;DHT22;3504;52.616;13.238;2022-11-15T23:28:13;6.74;89.94
6930;DHT22;3504;52.616;13.238;2022-11-15T23:33:14;6.74;89.62
6930;DHT22;3504;52.616;13.238;2022-11-15T23:38:34;6.67;89.32
6930;DHT22;3504;52.616;13.238;2022-11-15T23:43:36;6.60;89.80
6930;DHT22;3504;52.616;13.238;2022-11-15T23:48:37;6.63;89.69
6930;DHT22;3504;52.616;13.238;2022-11-15T23:53:37;6.64;89.82
6930;DHT22;3504;52.616;13.238;2022-11-15T23:58:38;6.64;89.42
